Time;durP1;ratioP1;P1;durP2;ratioP2;P2;SDS_P1;SDS_P2;PMS_P1;PMS_P2;Temp;Humidity;BMP_temperature;BMP_pressure;BME280_temperature;BME280_humidity;BME280_pressure;Samples;Min_cycle;Max_cycle;Signal;HPM_P1;HPM_P2
2022/07/06 00:00:58;;;;;;;7.80;2.17;;;19.70;83.50;;;;;;5010937;28;20026;-54
2022/07/06 00:03:24;;;;;;;2.28;1.92;;;19.70;83.70;;;;;;4995127;28;20014;-50
2022/07/06 00:05:49;;;;;;;2.33;1.88;;;19.70;83.90;;;;;;5012481;28;20022;-55
2022/07/06 00:08:15;;;;;;;3.15;1.90;;;19.70;84.20;;;;;;5011603;28;20029;-54
2022/07/06 00:10:40;;;;;;;5.28;2.15;;;19.70;84.40;;;;;;5012336;28;20509;-54
2022/07/06 00:13:06;;;;;;;4.13;1.85;;;19.70;84.40;;;;;;5012635;28;20072;-52
2022/07/06 00:15:31;;;;;;;3.78;1.98;;;19.70;84.60;;;;;;4994610;28;20037;-51
2022/07/06 00:17:57;;;;;;;3.72;2.30;;;19.70;85.00;;;;;;5011580;28;20037;-54
2022/07/06 00:20:22;;;;;;;3.17;2.40;;;19.70;85.20;;;;;;5012131;28;20482;-51
2022/07/06 00:22:47;;;;;;;3.72;1.92;;;19.60;85.50;;;;;;5012140;28;20030;-50
2022/07/06 00:25:13;;;;;;;6.57;2.17;;;19.50;85.90;;;;;;5012182;28;20041;-49
2022/07/06 00:27:38;;;;;;;2.88;2.13;;;19.50;86.50;;;;;;5011423;28;20108;-52
2022/07/06 00:30:05;;;;;;;4.15;1.95;;;19.40;86.90;;;;;;5011891;28;20520;-50
2022/07/06 00:32:30;;;;;;;5.22;2.00;;;19.30;87.20;;;;;;5012093;28;20048;-54
2022/07/06 00:34:56;;;;;;;3.10;2.42;;;19.30;87.50;;;;;;5011909;28;20034;-54
2022/07/06 00:37:21;;;;;;;4.18;1.98;;;19.20;87.90;;;;;;4993789;28;20491;-53
2022/07/06 00:39:46;;;;;;;12.05;3.40;;;19.20;88.20;;;;;;5011845;28;20052;-52
2022/07/06 00:42:12;;;;;;;9.38;1.92;;;19.20;88.50;;;;;;4994401;28;20114;-52
2022/07/06 00:44:37;;;;;;;4.50;1.80;;;19.10;89.10;;;;;;5011855;28;20084;-49
2022/07/06 00:47:03;;;;;;;3.67;1.95;;;19.10;89.40;;;;;;5011132;28;20104;-52
2022/07/06 00:52:14;;;;;;;10.07;1.98;;;19.00;90.10;;;;;;5012059;28;20056;-52
2022/07/06 00:54:41;;;;;;;8.02;2.38;;;19.00;90.20;;;;;;4993782;28;20030;-54
2022/07/06 00:57:06;;;;;;;5.30;2.58;;;19.00;90.40;;;;;;5011547;28;20049;-53
2022/07/06 00:59:32;;;;;;;4.60;1.63;;;19.00;90.40;;;;;;5011776;28;20049;-52
2022/07/06 01:01:58;;;;;;;4.45;1.95;;;19.00;90.50;;;;;;5010649;28;20100;-50
2022/07/06 01:04:23;;;;;;;3.22;2.85;;;19.00;90.60;;;;;;4994021;28;20060;-51
2022/07/06 01:06:49;;;;;;;4.85;2.38;;;19.00;90.80;;;;;;5011171;28;20049;-52
2022/07/06 01:09:14;;;;;;;3.28;1.90;;;18.90;90.90;;;;;;5011355;28;20137;-53
2022/07/06 01:11:40;;;;;;;3.47;1.85;;;18.90;91.10;;;;;;5011679;28;20465;-52
2022/07/06 01:14:06;;;;;;;3.67;1.95;;;18.90;91.10;;;;;;5011457;28;20071;-50
2022/07/06 01:16:32;;;;;;;6.00;2.25;;;19.00;91.20;;;;;;5011478;28;20113;-55
2022/07/06 01:18:57;;;;;;;5.97;2.00;;;18.90;91.40;;;;;;5010864;28;20104;-49
2022/07/06 01:21:23;;;;;;;2.67;1.90;;;18.80;91.60;;;;;;5011453;28;20553;-50
2022/07/06 01:23:48;;;;;;;6.28;2.42;;;18.80;91.80;;;;;;5011619;28;20037;-50
2022/07/06 01:26:18;;;;;;;2.60;1.58;;;18.70;92.00;;;;;;5011337;28;20030;-49
2022/07/06 01:28:44;;;;;;;5.88;1.58;;;18.70;92.10;;;;;;5010836;28;20068;-48
2022/07/06 01:31:22;;;;;;;7.15;1.95;;;18.70;92.10;;;;;;5024755;22;20051;-48
2022/07/06 01:33:52;;;;;;;5.53;1.83;;;18.70;92.10;;;;;;4991498;28;20033;-50
2022/07/06 01:36:19;;;;;;;10.25;1.92;;;18.60;92.30;;;;;;4991724;28;20538;-49
2022/07/06 01:38:50;;;;;;;5.03;1.83;;;18.60;92.40;;;;;;4990990;28;20026;-50
2022/07/06 01:41:16;;;;;;;17.38;2.08;;;18.60;92.40;;;;;;4991660;28;20021;-46
2022/07/06 01:43:42;;;;;;;5.15;2.30;;;18.60;92.60;;;;;;4991816;28;20029;-50
2022/07/06 01:46:08;;;;;;;5.38;1.95;;;18.60;92.50;;;;;;4991705;28;20397;-49
2022/07/06 01:48:33;;;;;;;3.03;1.67;;;18.60;92.50;;;;;;4991094;28;20066;-49
2022/07/06 01:50:59;;;;;;;5.45;1.80;;;18.60;92.60;;;;;;4991990;28;20389;-49
2022/07/06 01:53:24;;;;;;;2.85;2.00;;;18.60;92.60;;;;;;4991776;28;20093;-48
2022/07/06 01:55:50;;;;;;;5.20;1.60;;;18.60;92.60;;;;;;4991593;28;20026;-49
2022/07/06 01:58:15;;;;;;;5.63;1.85;;;18.50;92.70;;;;;;4991035;28;20022;-50
2022/07/06 02:00:41;;;;;;;5.18;1.90;;;18.50;92.80;;;;;;4989765;28;20034;-48
2022/07/06 02:03:07;;;;;;;3.95;1.95;;;18.50;92.80;;;;;;4991655;28;20114;-44
2022/07/06 02:05:32;;;;;;;5.70;1.63;;;18.50;92.80;;;;;;4991535;28;20034;-47
2022/07/06 02:07:58;;;;;;;3.22;1.55;;;18.30;92.90;;;;;;4992813;28;20030;-54
2022/07/06 02:10:23;;;;;;;3.05;1.90;;;18.30;92.90;;;;;;4994541;28;20027;-52
2022/07/06 02:12:49;;;;;;;2.97;2.03;;;18.20;93.10;;;;;;4995207;28;20033;-48
2022/07/06 02:15:14;;;;;;;2.38;1.55;;;18.10;93.10;;;;;;4994801;28;20101;-45
2022/07/06 02:17:40;;;;;;;4.18;2.17;;;18.00;93.10;;;;;;4993033;28;20440;-49
2022/07/06 02:20:06;;;;;;;2.03;1.38;;;17.90;93.20;;;;;;4994702;28;20030;-47
2022/07/06 02:22:32;;;;;;;2.42;1.60;;;17.90;93.10;;;;;;4995150;28;20491;-52
2022/07/06 02:24:57;;;;;;;2.10;1.73;;;17.90;93.20;;;;;;4994654;28;20030;-44
2022/07/06 02:27:22;;;;;;;4.15;1.48;;;17.90;93.20;;;;;;4993980;28;20037;-51
2022/07/06 02:29:48;;;;;;;1.58;1.48;;;17.90;93.20;;;;;;4994904;28;20035;-50
2022/07/06 02:32:13;;;;;;;3.67;1.70;;;17.80;93.10;;;;;;4994622;28;20069;-48
2022/07/06 02:34:39;;;;;;;4.60;1.70;;;17.80;93.00;;;;;;4994671;28;20041;-51
2022/07/06 02:37:05;;;;;;;2.05;1.48;;;17.80;93.20;;;;;;4993895;28;20424;-44
2022/07/06 02:39:30;;;;;;;4.35;1.60;;;17.70;93.20;;;;;;4994534;28;20023;-53
2022/07/06 02:41:56;;;;;;;3.20;1.67;;;17.70;93.30;;;;;;4994639;28;20471;-51
2022/07/06 02:44:21;;;;;;;2.83;1.55;;;17.70;93.50;;;;;;4994429;28;20549;-54
2022/07/06 02:46:47;;;;;;;1.55;1.40;;;17.70;93.60;;;;;;4992658;28;20018;-46
2022/07/06 02:49:12;;;;;;;2.75;1.40;;;17.60;93.70;;;;;;4990649;28;20050;-53
2022/07/06 02:51:38;;;;;;;6.05;2.05;;;17.60;93.80;;;;;;5002901;28;20442;-54
2022/07/06 02:54:03;;;;;;;1.88;1.58;;;17.60;94.00;;;;;;4997306;28;20113;-50
2022/07/06 02:56:29;;;;;;;3.78;1.80;;;17.60;94.10;;;;;;4993642;28;20375;-49
2022/07/06 02:58:54;;;;;;;1.65;1.40;;;17.50;94.40;;;;;;4993523;28;20487;-47
2022/07/06 03:01:20;;;;;;;2.85;1.90;;;17.50;94.50;;;;;;4993194;28;20482;-50
2022/07/06 03:03:45;;;;;;;1.60;1.50;;;17.40;94.70;;;;;;4994425;28;20701;-48
2022/07/06 03:06:11;;;;;;;5.40;2.10;;;17.40;95.00;;;;;;4993857;28;20092;-48
2022/07/06 03:08:36;;;;;;;4.72;1.80;;;17.40;95.10;;;;;;4992049;28;20027;-47
2022/07/06 03:11:02;;;;;;;2.53;1.73;;;17.30;95.60;;;;;;4994021;28;20041;-47
2022/07/06 03:13:28;;;;;;;4.15;1.65;;;17.30;95.80;;;;;;4991818;28;20034;-49
2022/07/06 03:15:55;;;;;;;7.65;2.47;;;17.20;96.00;;;;;;4993682;28;20035;-52
2022/07/06 03:18:20;;;;;;;3.50;1.80;;;17.10;96.10;;;;;;4991161;28;20023;-45
2022/07/06 03:20:46;;;;;;;4.43;1.55;;;17.10;96.40;;;;;;4992211;28;20037;-49
2022/07/06 03:23:11;;;;;;;5.47;1.73;;;17.10;96.50;;;;;;4992433;28;20039;-51
2022/07/06 03:25:37;;;;;;;4.35;1.83;;;17.10;96.30;;;;;;4993573;28;20105;-49
2022/07/06 03:28:02;;;;;;;1.65;1.55;;;17.10;96.30;;;;;;4992984;28;20034;-52
2022/07/06 03:30:28;;;;;;;2.83;1.55;;;17.00;96.30;;;;;;4992226;28;20061;-51
2022/07/06 03:32:53;;;;;;;2.35;1.70;;;17.00;96.30;;;;;;4993243;28;20034;-53
2022/07/06 03:35:19;;;;;;;5.07;1.90;;;17.00;96.20;;;;;;4993170;28;20062;-49
2022/07/06 03:37:45;;;;;;;3.92;1.60;;;17.00;96.30;;;;;;4992571;28;20019;-44
2022/07/06 03:40:11;;;;;;;6.90;2.03;;;17.00;96.50;;;;;;4992101;28;20073;-51
2022/07/06 03:42:37;;;;;;;2.72;1.60;;;16.90;96.60;;;;;;4992677;28;20077;-50
2022/07/06 03:45:04;;;;;;;3.88;1.67;;;16.90;96.90;;;;;;4993174;28;20034;-50
2022/07/06 03:47:29;;;;;;;2.60;1.70;;;16.80;97.00;;;;;;4992572;28;20026;-50
2022/07/06 03:49:55;;;;;;;4.22;1.88;;;16.80;97.30;;;;;;4993003;28;20088;-50
2022/07/06 03:52:20;;;;;;;7.63;2.45;;;16.80;97.50;;;;;;4992617;28;20062;-51
2022/07/06 03:54:46;;;;;;;3.47;1.58;;;16.80;97.40;;;;;;5009587;28;20108;-48
2022/07/06 03:57:13;;;;;;;3.08;1.80;;;16.80;97.50;;;;;;4996323;28;20037;-51
2022/07/06 03:59:41;;;;;;;3.17;1.45;;;16.80;97.60;;;;;;5009766;28;20022;-48
2022/07/06 04:02:07;;;;;;;5.20;2.25;;;16.90;97.80;;;;;;5002471;28;20080;-52
2022/07/06 04:04:34;;;;;;;3.47;1.70;;;16.80;97.90;;;;;;4992848;28;20273;-48
2022/07/06 04:06:59;;;;;;;2.97;1.90;;;16.90;97.90;;;;;;4992508;28;20445;-48
2022/07/06 04:09:25;;;;;;;6.32;1.80;;;16.90;97.90;;;;;;5005750;28;20113;-47
2022/07/06 04:11:50;;;;;;;3.85;1.60;;;16.90;98.00;;;;;;5012584;28;20032;-49
2022/07/06 04:14:16;;;;;;;3.25;1.60;;;17.00;97.80;;;;;;5012591;28;20117;-48
2022/07/06 04:16:42;;;;;;;1.95;1.60;;;16.90;98.00;;;;;;5012881;28;20029;-49
2022/07/06 04:19:07;;;;;;;6.72;2.70;;;17.00;97.80;;;;;;5012978;28;20029;-47
2022/07/06 04:21:32;;;;;;;7.38;2.08;;;17.00;97.90;;;;;;5001739;28;20117;-53
2022/07/06 04:23:58;;;;;;;3.90;2.30;;;17.00;97.90;;;;;;4994001;28;20380;-50
2022/07/06 04:26:23;;;;;;;10.00;2.05;;;17.00;97.80;;;;;;4992955;28;20031;-49
2022/07/06 04:28:49;;;;;;;5.40;2.13;;;17.00;97.90;;;;;;4991756;28;20026;-47
2022/07/06 04:31:15;;;;;;;4.53;2.20;;;17.00;98.00;;;;;;4991851;28;20042;-49
2022/07/06 04:33:42;;;;;;;8.02;3.00;;;17.00;98.10;;;;;;4992527;28;20034;-53
2022/07/06 04:36:08;;;;;;;4.88;2.30;;;17.00;98.00;;;;;;4992260;28;20034;-49
2022/07/06 04:38:34;;;;;;;4.45;2.08;;;17.10;98.20;;;;;;4991897;28;20030;-46
2022/07/06 04:40:59;;;;;;;5.47;2.38;;;17.10;98.30;;;;;;4992261;28;20054;-45
2022/07/06 04:43:25;;;;;;;5.93;2.22;;;17.10;98.30;;;;;;4992342;28;20423;-49
2022/07/06 04:45:50;;;;;;;6.30;2.15;;;17.00;98.40;;;;;;4992733;28;20117;-48
2022/07/06 04:48:16;;;;;;;7.20;3.17;;;17.10;98.30;;;;;;4991444;28;20034;-49
2022/07/06 04:50:42;;;;;;;8.88;2.20;;;17.20;98.10;;;;;;4992415;28;20113;-49
2022/07/06 04:53:07;;;;;;;3.30;2.03;;;17.40;97.90;;;;;;4992803;28;20038;-51
2022/07/06 04:55:33;;;;;;;2.95;2.00;;;17.50;97.60;;;;;;4992833;28;20026;-48
2022/07/06 04:57:58;;;;;;;6.25;2.10;;;17.80;97.40;;;;;;5003491;28;20123;-49
2022/07/06 05:00:23;;;;;;;3.30;2.10;;;18.20;96.50;;;;;;5012110;28;20068;-53
2022/07/06 05:02:49;;;;;;;3.75;1.95;;;18.60;95.30;;;;;;5011800;28;20057;-47
2022/07/06 05:05:14;;;;;;;3.75;1.98;;;19.00;94.90;;;;;;5011807;28;20030;-50
2022/07/06 05:07:40;;;;;;;3.95;2.28;;;19.70;93.10;;;;;;5010970;28;20030;-51
2022/07/06 05:10:07;;;;;;;4.60;1.90;;;20.40;91.60;;;;;;5011525;28;20113;-49
2022/07/06 05:12:33;;;;;;;2.78;1.60;;;21.00;90.70;;;;;;5012126;28;20084;-52
2022/07/06 05:14:59;;;;;;;3.13;1.42;;;21.60;88.20;;;;;;5010160;28;20026;-55
2022/07/06 05:17:25;;;;;;;1.58;1.48;;;22.20;86.10;;;;;;4993515;28;20042;-53
2022/07/06 05:19:50;;;;;;;4.13;1.77;;;22.70;83.80;;;;;;4990856;28;20367;-51
2022/07/06 05:22:16;;;;;;;5.32;2.00;;;23.40;81.70;;;;;;4990027;28;20026;-50
2022/07/06 05:24:41;;;;;;;7.55;2.42;;;23.80;79.80;;;;;;4990042;28;20061;-48
2022/07/06 05:27:07;;;;;;;12.85;2.35;;;24.00;78.60;;;;;;4992715;28;20121;-51
2022/07/06 05:29:32;;;;;;;3.88;1.80;;;23.50;78.50;;;;;;5012086;28;20046;-48
2022/07/06 05:31:58;;;;;;;8.80;2.70;;;23.50;79.20;;;;;;5002725;28;20474;-49
2022/07/06 05:34:23;;;;;;;4.38;1.65;;;22.70;80.10;;;;;;4991674;28;20446;-55
2022/07/06 05:36:49;;;;;;;6.50;2.28;;;23.20;79.80;;;;;;4990483;28;20045;-50
2022/07/06 05:39:19;;;;;;;7.03;2.30;;;23.80;77.70;;;;;;4989661;28;20050;-52
2022/07/06 05:41:45;;;;;;;6.20;2.22;;;24.40;76.70;;;;;;4992041;28;20018;-50
2022/07/06 05:44:10;;;;;;;4.72;2.10;;;24.60;75.10;;;;;;4995398;28;20019;-52
2022/07/06 05:46:36;;;;;;;6.00;2.15;;;23.40;77.30;;;;;;4995341;28;20031;-54
2022/07/06 05:51:46;;;;;;;4.15;2.20;;;23.70;77.10;;;;;;4995860;28;20065;-51
2022/07/06 05:54:11;;;;;;;4.05;1.90;;;23.40;77.40;;;;;;4995229;28;20062;-51
2022/07/06 05:56:37;;;;;;;6.45;2.17;;;23.70;76.90;;;;;;4995055;28;20065;-51
2022/07/06 05:59:02;;;;;;;8.85;2.22;;;24.20;75.60;;;;;;4994452;28;20022;-50
2022/07/06 06:01:28;;;;;;;6.82;1.88;;;24.60;74.70;;;;;;4994999;28;20023;-50
2022/07/06 06:03:53;;;;;;;6.93;1.98;;;24.20;74.90;;;;;;4995168;28;20035;-53
2022/07/06 06:06:19;;;;;;;5.47;1.90;;;23.50;76.60;;;;;;4994936;28;20502;-52
2022/07/06 06:08:44;;;;;;;8.48;2.45;;;23.10;77.70;;;;;;4994863;28;20038;-52
2022/07/06 06:11:10;;;;;;;4.72;1.80;;;23.10;78.30;;;;;;4995067;28;20530;-48
2022/07/06 06:13:35;;;;;;;3.78;2.20;;;23.90;76.40;;;;;;4994970;28;20033;-50
2022/07/06 06:16:01;;;;;;;4.00;2.08;;;24.80;73.50;;;;;;4993699;28;20030;-51
2022/07/06 06:18:26;;;;;;;9.93;2.97;;;24.80;72.00;;;;;;4994359;28;20093;-52
2022/07/06 06:20:52;;;;;;;6.15;2.40;;;24.60;72.30;;;;;;4994936;28;20482;-54
2022/07/06 06:23:18;;;;;;;4.82;2.05;;;23.90;73.60;;;;;;4994990;28;20038;-52
2022/07/06 06:25:43;;;;;;;8.45;2.42;;;23.50;74.60;;;;;;4994932;28;20027;-47
2022/07/06 06:28:10;;;;;;;7.88;2.60;;;22.80;75.90;;;;;;4993892;28;20105;-50
2022/07/06 06:30:37;;;;;;;3.25;2.30;;;22.00;78.30;;;;;;4994643;28;20046;-52
2022/07/06 06:33:09;;;;;;;4.05;2.60;;;20.70;81.40;;;;;;4994777;28;20121;-46
2022/07/06 06:35:35;;;;;;;6.20;2.30;;;20.20;83.00;;;;;;4994510;28;20105;-46
2022/07/06 06:38:01;;;;;;;9.40;2.20;;;20.20;83.60;;;;;;4993925;28;20105;-53
2022/07/06 06:40:26;;;;;;;5.93;2.42;;;20.30;83.90;;;;;;4994381;28;20494;-50
2022/07/06 06:42:52;;;;;;;4.63;2.28;;;20.30;83.20;;;;;;4993168;28;20414;-48
2022/07/06 06:45:17;;;;;;;3.50;2.13;;;20.50;83.60;;;;;;4993133;28;20402;-49
2022/07/06 06:47:43;;;;;;;3.80;2.33;;;21.00;82.50;;;;;;4993886;28;20026;-49
2022/07/06 06:50:08;;;;;;;3.22;2.25;;;21.20;80.70;;;;;;4994411;28;20031;-48
2022/07/06 06:52:34;;;;;;;6.15;2.15;;;21.60;80.10;;;;;;4993902;28;20061;-53
2022/07/06 06:55:00;;;;;;;7.75;3.03;;;22.30;79.20;;;;;;4994054;28;20026;-52
2022/07/06 06:57:25;;;;;;;2.30;2.10;;;23.20;76.60;;;;;;4991734;28;20018;-51
2022/07/06 06:59:51;;;;;;;4.00;2.20;;;23.70;73.60;;;;;;4994178;28;20026;-47
2022/07/06 07:02:16;;;;;;;2.53;1.70;;;24.60;72.60;;;;;;5003328;28;20033;-51
2022/07/06 07:04:42;;;;;;;3.47;1.70;;;24.80;72.00;;;;;;5010045;28;20030;-49
2022/07/06 07:07:08;;;;;;;2.92;1.70;;;25.30;71.00;;;;;;4992712;28;20030;-50
2022/07/06 07:09:33;;;;;;;8.38;2.83;;;25.90;68.80;;;;;;5002983;28;20026;-48
2022/07/06 07:11:59;;;;;;;2.35;1.77;;;26.50;67.50;;;;;;5012291;28;20030;-47
2022/07/06 07:14:24;;;;;;;7.53;1.52;;;26.80;67.00;;;;;;4997450;28;20490;-48
2022/07/06 07:16:50;;;;;;;5.40;1.92;;;26.60;67.20;;;;;;4992218;28;20018;-53
2022/07/06 07:19:15;;;;;;;3.92;1.63;;;26.20;67.50;;;;;;4993651;28;20030;-47
2022/07/06 07:21:41;;;;;;;5.63;1.77;;;25.70;68.60;;;;;;4993630;28;20394;-47
2022/07/06 07:24:07;;;;;;;3.88;1.75;;;25.00;69.80;;;;;;4993942;28;20031;-53
2022/07/06 07:26:33;;;;;;;3.90;1.92;;;24.40;70.90;;;;;;4993502;28;20026;-49
2022/07/06 07:28:58;;;;;;;2.53;1.92;;;23.70;71.80;;;;;;4991859;28;20552;-44
2022/07/06 07:31:24;;;;;;;8.65;1.90;;;22.80;73.90;;;;;;5037336;22;20041;-50
2022/07/06 07:33:49;;;;;;;8.65;2.30;;;22.20;76.20;;;;;;5053049;28;20028;-52
2022/07/06 07:36:15;;;;;;;2.75;2.00;;;21.80;76.70;;;;;;5052699;28;20116;-53
2022/07/06 07:38:40;;;;;;;3.22;1.88;;;21.50;77.90;;;;;;5033961;28;20401;-49
2022/07/06 07:41:06;;;;;;;4.00;2.10;;;21.30;79.10;;;;;;5051432;28;20104;-48
2022/07/06 07:43:32;;;;;;;3.47;2.50;;;20.90;79.70;;;;;;5050831;28;20032;-53
2022/07/06 07:45:57;;;;;;;7.65;2.25;;;20.90;79.80;;;;;;5024400;28;20029;-55
2022/07/06 07:48:23;;;;;;;3.70;2.17;;;20.90;80.30;;;;;;5032212;28;20029;-54
2022/07/06 07:50:48;;;;;;;4.82;2.40;;;20.80;80.10;;;;;;5044673;28;20032;-49
2022/07/06 07:53:14;;;;;;;8.50;2.78;;;21.10;79.80;;;;;;5032661;28;20034;-52
2022/07/06 07:55:39;;;;;;;6.18;2.67;;;21.00;80.20;;;;;;5032761;28;20044;-50
2022/07/06 07:58:05;;;;;;;3.45;2.05;;;20.90;79.60;;;;;;5031672;28;20429;-53
2022/07/06 08:00:31;;;;;;;12.38;3.00;;;21.20;79.90;;;;;;5032502;28;20017;-51
2022/07/06 08:02:56;;;;;;;3.95;2.17;;;21.80;78.10;;;;;;5032318;28;20489;-51
2022/07/06 08:05:22;;;;;;;8.13;2.20;;;22.30;77.30;;;;;;5030949;28;20489;-54
2022/07/06 08:07:47;;;;;;;9.48;1.88;;;22.80;76.00;;;;;;5031346;28;20025;-52
2022/07/06 08:10:13;;;;;;;3.10;2.67;;;23.10;74.60;;;;;;5032791;28;20036;-52
2022/07/06 08:12:39;;;;;;;3.35;2.00;;;23.10;74.50;;;;;;5031969;28;20056;-50
2022/07/06 08:15:05;;;;;;;4.20;1.85;;;23.10;74.30;;;;;;5032043;28;20053;-55
2022/07/06 08:17:30;;;;;;;8.55;2.40;;;23.10;74.60;;;;;;5030589;28;20030;-52
2022/07/06 08:19:56;;;;;;;9.68;2.33;;;22.60;75.00;;;;;;5030202;28;20039;-54
2022/07/06 08:22:22;;;;;;;5.35;2.17;;;22.00;76.30;;;;;;5031096;28;20025;-53
2022/07/06 08:24:48;;;;;;;3.90;2.08;;;22.30;75.00;;;;;;5032169;28;20022;-52
2022/07/06 08:27:14;;;;;;;3.85;2.17;;;22.60;76.00;;;;;;5031014;28;20188;-53
2022/07/06 08:29:40;;;;;;;6.38;2.25;;;22.70;73.60;;;;;;5032128;28;20107;-54
2022/07/06 08:32:05;;;;;;;3.60;1.77;;;23.00;73.20;;;;;;5031600;28;20472;-54
2022/07/06 08:34:31;;;;;;;5.07;2.10;;;22.70;74.60;;;;;;5031782;28;20033;-53
2022/07/06 08:36:56;;;;;;;9.13;2.20;;;22.70;73.60;;;;;;5031121;28;20473;-53
2022/07/06 08:39:22;;;;;;;2.13;1.92;;;22.70;72.80;;;;;;5032152;28;20024;-51
2022/07/06 08:41:48;;;;;;;5.90;1.73;;;23.00;73.00;;;;;;5032411;28;20400;-50
2022/07/06 08:44:15;;;;;;;9.30;2.15;;;23.00;72.60;;;;;;5031619;28;20497;-52
2022/07/06 08:46:41;;;;;;;3.63;1.90;;;23.10;72.80;;;;;;5031737;28;20488;-51
2022/07/06 08:49:08;;;;;;;3.47;1.35;;;23.00;71.90;;;;;;5031033;28;20022;-50
2022/07/06 08:51:37;;;;;;;2.65;1.58;;;22.90;72.40;;;;;;5013856;28;20060;-49
2022/07/06 08:54:03;;;;;;;8.13;1.75;;;22.70;72.20;;;;;;5031587;28;20544;-53
2022/07/06 08:56:29;;;;;;;2.25;1.60;;;22.50;72.80;;;;;;5031496;28;20021;-52
2022/07/06 08:58:55;;;;;;;6.30;1.95;;;22.20;73.60;;;;;;5016589;28;20079;-53
2022/07/06 09:01:21;;;;;;;2.90;1.75;;;22.10;73.40;;;;;;5011758;28;20026;-53
2022/07/06 09:03:49;;;;;;;4.05;1.90;;;22.10;73.50;;;;;;5000730;28;20025;-53
2022/07/06 09:06:17;;;;;;;3.40;1.52;;;22.30;73.30;;;;;;5031290;28;20452;-52
2022/07/06 09:08:43;;;;;;;2.53;1.80;;;23.00;72.20;;;;;;5012699;28;20477;-51
2022/07/06 09:11:09;;;;;;;3.42;1.60;;;23.40;70.50;;;;;;5031528;28;20036;-55
2022/07/06 09:13:34;;;;;;;2.95;1.55;;;23.90;69.30;;;;;;5031185;28;20025;-50
2022/07/06 09:16:14;;;;;;;2.15;1.70;;;24.40;68.80;;;;;;5032126;28;20067;-50
2022/07/06 09:18:43;;;;;;;7.55;1.50;;;24.90;66.60;;;;;;5034961;28;20025;-50
2022/07/06 09:21:08;;;;;;;6.32;4.20;;;24.90;67.60;;;;;;5035595;28;20057;-52
2022/07/06 09:23:35;;;;;;;1.48;1.35;;;24.70;67.20;;;;;;5035868;28;20052;-50
2022/07/06 09:26:05;;;;;;;3.42;1.35;;;24.20;67.50;;;;;;5035448;28;20029;-49
2022/07/06 09:28:44;;;;;;;3.67;2.10;;;23.90;68.70;;;;;;5034670;28;20029;-52
2022/07/06 09:31:10;;;;;;;2.53;1.52;;;24.10;68.30;;;;;;5035190;28;20034;-54
2022/07/06 09:33:36;;;;;;;1.63;1.50;;;24.20;67.00;;;;;;5035397;28;20030;-53
2022/07/06 09:36:02;;;;;;;4.75;2.00;;;23.80;66.90;;;;;;5035188;28;20025;-50
2022/07/06 09:38:28;;;;;;;3.45;2.03;;;23.70;67.60;;;;;;5034529;28;20489;-51
2022/07/06 09:40:54;;;;;;;2.75;1.60;;;23.60;67.10;;;;;;5034823;28;20033;-53
2022/07/06 09:43:22;;;;;;;3.70;1.88;;;23.80;67.60;;;;;;5035054;28;20037;-51
2022/07/06 09:45:57;;;;;;;3.53;1.50;;;23.80;67.00;;;;;;5034928;28;20028;-52
2022/07/06 09:48:26;;;;;;;;;;;24.20;67.40;;;;;;5034616;28;20112;-49
2022/07/06 09:50:54;;;;;;;4.30;1.52;;;24.20;66.60;;;;;;5034739;28;19905;-50
2022/07/06 09:53:22;;;;;;;2.53;1.52;;;24.50;66.00;;;;;;5034907;28;20040;-54
2022/07/06 09:55:49;;;;;;;6.97;1.33;;;24.30;65.00;;;;;;5034656;28;20022;-52
2022/07/06 09:58:16;;;;;;;7.88;1.40;;;24.00;66.00;;;;;;5016810;28;20029;-52
2022/07/06 10:00:45;;;;;;;7.32;1.75;;;24.10;65.00;;;;;;5034832;28;20017;-49
2022/07/06 10:03:12;;;;;;;4.47;1.75;;;24.20;65.10;;;;;;5037137;28;20029;-51
2022/07/06 10:05:39;;;;;;;6.38;1.27;;;24.20;64.40;;;;;;5043875;28;20536;-48
2022/07/06 10:08:05;;;;;;;2.13;1.17;;;24.00;64.90;;;;;;5044977;28;20454;-51
2022/07/06 10:10:32;;;;;;;5.45;1.30;;;23.80;64.70;;;;;;5034572;28;20025;-51
2022/07/06 10:12:59;;;;;;;2.00;1.27;;;23.70;63.90;;;;;;5034438;28;20039;-53
2022/07/06 10:15:26;;;;;;;3.13;1.20;;;23.50;64.00;;;;;;5034552;28;20029;-51
2022/07/06 10:17:52;;;;;;;4.38;1.20;;;23.50;64.10;;;;;;5033596;28;20032;-55
2022/07/06 10:20:19;;;;;;;3.38;1.33;;;23.50;63.60;;;;;;5041572;28;20104;-56
2022/07/06 10:22:49;;;;;;;2.58;1.65;;;23.50;63.70;;;;;;5039886;28;20453;-53
2022/07/06 10:25:18;;;;;;;4.97;1.20;;;23.40;65.10;;;;;;5037638;28;20029;-52
2022/07/06 10:27:46;;;;;;;3.28;1.38;;;23.40;65.10;;;;;;5032785;28;20025;-50
2022/07/06 10:30:12;;;;;;;5.05;1.38;;;23.20;65.40;;;;;;5034090;28;20497;-49
2022/07/06 10:32:39;;;;;;;4.20;1.10;;;23.30;65.90;;;;;;5033843;28;20095;-50
2022/07/06 10:35:06;;;;;;;3.90;0.90;;;23.30;65.50;;;;;;5033837;28;20045;-51
2022/07/06 10:37:33;;;;;;;1.58;0.98;;;23.40;65.20;;;;;;5037561;28;20555;-56
2022/07/06 10:42:51;;;;;;;1.87;1.10;;;23.50;66.20;;;;;;5053063;28;20094;-53
2022/07/06 10:45:46;;;;;;;4.20;1.50;;;23.50;65.50;;;;;;5013942;28;20449;-51
2022/07/06 10:48:11;;;;;;;3.15;1.45;;;23.50;64.70;;;;;;5013022;28;20026;-53
2022/07/06 10:50:46;;;;;;;2.45;1.23;;;23.40;64.40;;;;;;5013795;28;20088;-53
2022/07/06 10:53:35;;;;;;;4.00;1.10;;;23.30;64.70;;;;;;5027297;28;20025;-53
2022/07/06 10:56:04;;;;;;;2.75;1.45;;;23.30;64.70;;;;;;5053391;28;20440;-50
2022/07/06 10:58:40;;;;;;;1.40;1.27;;;23.10;64.90;;;;;;5052433;28;20107;-56
2022/07/06 11:01:10;;;;;;;3.85;3.03;;;23.00;65.30;;;;;;5013843;28;20030;-48
2022/07/06 11:03:46;;;;;;;3.78;1.85;;;22.60;65.30;;;;;;5033440;28;20021;-52
2022/07/06 11:06:18;;;;;;;2.25;1.70;;;22.60;65.80;;;;;;5033452;28;20071;-50
2022/07/06 11:08:50;;;;;;;2.25;1.67;;;22.50;66.60;;;;;;5032468;28;20060;-54
2022/07/06 11:11:37;;;;;;;1.73;1.63;;;22.60;66.40;;;;;;5035288;28;20033;-51
2022/07/06 11:14:07;;;;;;;6.43;1.95;;;22.70;66.70;;;;;;5046925;28;20037;-53
2022/07/06 11:17:00;;;;;;;2.90;2.08;;;22.70;66.10;;;;;;5035184;28;20029;-53
2022/07/06 11:19:26;;;;;;;3.03;2.03;;;22.70;65.80;;;;;;5052920;28;20017;-50
2022/07/06 11:22:05;;;;;;;1.75;1.60;;;22.70;65.60;;;;;;5052815;28;20083;-53
2022/07/06 11:24:33;;;;;;;2.85;1.50;;;22.70;63.80;;;;;;5044529;28;20037;-49
2022/07/06 11:27:01;;;;;;;6.13;1.90;;;22.60;64.60;;;;;;5032213;28;20112;-52
2022/07/06 11:29:28;;;;;;;5.00;1.98;;;22.60;64.00;;;;;;5015746;28;20044;-51
2022/07/06 11:31:56;;;;;;;3.03;1.85;;;22.60;66.30;;;;;;5032611;28;20116;-50
2022/07/06 11:34:27;;;;;;;2.72;1.70;;;22.60;66.40;;;;;;5033019;28;20409;-49
2022/07/06 11:36:57;;;;;;;2.25;1.70;;;22.60;65.40;;;;;;5031588;28;20463;-52
2022/07/06 11:39:26;;;;;;;4.15;1.70;;;22.60;65.80;;;;;;5049380;28;20025;-50
2022/07/06 11:41:53;;;;;;;5.35;1.55;;;22.70;64.40;;;;;;5052352;28;20024;-53
2022/07/06 11:44:19;;;;;;;3.80;1.75;;;22.70;64.70;;;;;;5052389;28;20028;-52
2022/07/06 11:46:44;;;;;;;1.75;1.50;;;22.70;65.10;;;;;;5052286;28;20393;-54
2022/07/06 11:49:10;;;;;;;2.95;1.58;;;22.80;64.80;;;;;;5052314;28;20088;-51
2022/07/06 11:51:38;;;;;;;3.63;1.40;;;22.80;64.00;;;;;;5052596;28;20065;-53
2022/07/06 11:54:11;;;;;;;2.42;1.48;;;22.70;63.90;;;;;;5050426;28;20112;-49
2022/07/06 11:56:37;;;;;;;2.05;1.83;;;22.60;63.80;;;;;;5052129;28;20057;-52
2022/07/06 11:59:04;;;;;;;17.75;12.90;;;22.60;63.00;;;;;;5051393;28;20060;-54
2022/07/06 12:01:31;;;;;;;13.65;11.07;;;22.50;64.00;;;;;;5052344;28;20044;-54
2022/07/06 12:04:04;;;;;;;2.35;1.88;;;22.40;63.30;;;;;;5052040;28;20036;-49
2022/07/06 12:06:30;;;;;;;3.50;1.40;;;22.30;65.10;;;;;;5052235;28;20025;-50
2022/07/06 12:09:04;;;;;;;2.67;1.33;;;22.30;65.80;;;;;;5033784;28;20543;-51
2022/07/06 12:11:34;;;;;;;2.67;1.45;;;22.40;66.30;;;;;;5042989;28;20025;-52
2022/07/06 12:14:15;;;;;;;4.80;1.50;;;22.50;67.50;;;;;;5032130;28;20057;-51
2022/07/06 12:16:41;;;;;;;7.05;1.30;;;22.50;65.30;;;;;;5035249;28;20029;-54
2022/07/06 12:19:07;;;;;;;2.30;1.40;;;22.50;65.50;;;;;;5051267;28;20032;-54
2022/07/06 12:21:34;;;;;;;6.50;1.00;;;22.50;65.80;;;;;;5052165;28;20070;-50
2022/07/06 12:24:00;;;;;;;1.00;1.00;;;22.50;63.20;;;;;;5027211;28;20034;-53
2022/07/06 12:26:29;;;;;;;3.42;1.23;;;22.50;63.00;;;;;;5014144;28;20112;-53
2022/07/06 12:29:09;;;;;;;2.42;1.45;;;22.50;63.10;;;;;;5031215;28;20025;-53
2022/07/06 12:31:39;;;;;;;2.40;1.20;;;22.60;61.60;;;;;;5032850;28;20290;-50
2022/07/06 12:34:20;;;;;;;6.53;2.50;;;22.60;63.40;;;;;;5031949;28;20394;-53
2022/07/06 12:36:50;;;;;;;2.28;1.23;;;22.60;63.80;;;;;;5031090;28;20025;-53
2022/07/06 12:39:18;;;;;;;3.20;1.30;;;22.60;64.30;;;;;;5051332;28;20400;-53
2022/07/06 12:41:59;;;;;;;2.05;1.02;;;22.70;63.60;;;;;;5051520;28;20025;-53
2022/07/06 12:44:25;;;;;;;2.17;1.00;;;22.60;64.30;;;;;;5033584;28;20107;-50
2022/07/06 12:47:07;;;;;;;4.38;1.02;;;22.70;63.90;;;;;;5050879;28;20025;-48
2022/07/06 12:49:34;;;;;;;5.25;1.75;;;22.60;64.60;;;;;;5051477;28;20096;-52
2022/07/06 12:52:06;;;;;;;6.13;1.20;;;22.70;65.30;;;;;;5031400;28;20398;-51